createdAt,value
2023-03-02T00:00:37.274Z,32.37
2023-03-02T00:04:48.584Z,36.13
2023-03-02T00:08:50.445Z,36.20
2023-03-02T00:12:52.590Z,34.13
2023-03-02T00:16:54.427Z,36.70
2023-03-02T00:20:56.182Z,36.40
2023-03-02T00:24:58.077Z,32.67
2023-03-02T00:28:59.863Z,35.83
2023-03-02T00:33:01.665Z,36.50
2023-03-02T00:37:03.467Z,37.53
2023-03-02T00:41:05.270Z,36.20
2023-03-02T00:45:07.683Z,33.83
2023-03-02T00:49:09.498Z,33.50
2023-03-02T00:53:11.320Z,35.80
2023-03-02T00:57:13.319Z,33.90
2023-03-02T01:01:16.622Z,32.77
2023-03-02T01:05:19.484Z,36.07
2023-03-02T01:09:21.332Z,31.03
2023-03-02T01:13:23.155Z,31.97
2023-03-02T01:17:25.439Z,33.97
2023-03-02T01:21:27.176Z,31.27
2023-03-02T01:25:29.027Z,29.53
2023-03-02T01:29:30.749Z,31.90
2023-03-02T01:33:32.962Z,32.87
2023-03-02T01:37:34.775Z,29.73
2023-03-02T01:41:36.596Z,28.77
2023-03-02T01:45:53.021Z,30.33
2023-03-02T01:50:21.591Z,30.67
2023-03-02T01:54:23.654Z,31.67
2023-03-02T01:58:25.399Z,37.00
2023-03-02T02:02:27.128Z,31.37
2023-03-02T02:06:35.321Z,31.20
2023-03-02T02:10:37.266Z,34.07
2023-03-02T02:14:39.278Z,31.57
2023-03-02T02:18:41.495Z,30.63
2023-03-02T02:22:55.123Z,27.97
2023-03-02T02:26:57.426Z,31.70
2023-03-02T02:31:18.062Z,30.73
2023-03-02T02:35:25.090Z,29.30
2023-03-02T02:39:36.705Z,29.90
2023-03-02T02:43:38.474Z,33.80
2023-03-02T02:47:40.260Z,34.90
2023-03-02T02:51:41.980Z,31.23
2023-03-02T02:55:43.801Z,32.73
2023-03-02T02:59:48.498Z,31.63
2023-03-02T03:03:58.927Z,29.63
2023-03-02T03:08:17.027Z,29.87
2023-03-02T03:12:29.032Z,32.37
2023-03-02T03:16:38.033Z,34.10
2023-03-02T03:20:47.998Z,29.93
2023-03-02T03:24:49.725Z,28.63
2023-03-02T03:28:51.609Z,32.47
2023-03-02T03:32:53.567Z,30.17
2023-03-02T03:37:01.887Z,30.73
2023-03-02T03:41:03.880Z,31.87
2023-03-02T03:45:08.684Z,32.03
2023-03-02T03:49:10.556Z,31.97
2023-03-02T03:53:12.450Z,34.23
2023-03-02T03:57:24.643Z,33.33
2023-03-02T04:01:33.582Z,39.13
2023-03-02T04:05:37.822Z,31.47
2023-03-02T04:09:39.906Z,33.70
2023-03-02T04:13:41.688Z,30.00
2023-03-02T04:17:44.884Z,30.63
2023-03-02T04:21:50.391Z,33.87
2023-03-02T04:25:52.215Z,27.57
2023-03-02T04:29:54.014Z,30.70
2023-03-02T04:33:55.781Z,31.53
2023-03-02T04:37:57.741Z,26.33
2023-03-02T04:41:59.530Z,29.47
2023-03-02T04:46:02.879Z,30.60
2023-03-02T04:50:05.467Z,32.07
2023-03-02T04:54:12.080Z,35.90
2023-03-02T04:58:14.323Z,38.50
2023-03-02T05:02:16.882Z,35.60
2023-03-02T05:06:19.503Z,32.07
2023-03-02T05:10:22.431Z,34.87
2023-03-02T05:14:25.127Z,31.20
2023-03-02T05:18:29.294Z,31.70
2023-03-02T05:22:31.396Z,35.47
2023-03-02T05:26:35.824Z,32.43
2023-03-02T05:30:38.106Z,31.73
2023-03-02T05:34:39.967Z,30.87
2023-03-02T05:38:41.885Z,29.43
2023-03-02T05:42:43.854Z,32.30
2023-03-02T05:46:45.690Z,30.17
2023-03-02T05:50:47.655Z,34.50
2023-03-02T05:54:50.766Z,34.40
2023-03-02T05:58:52.550Z,31.67
2023-03-02T06:02:54.321Z,29.67
2023-03-02T06:06:56.259Z,31.03
2023-03-02T06:10:58.524Z,31.73
2023-03-02T06:15:00.406Z,34.27
2023-03-02T06:19:02.179Z,28.47
2023-03-02T06:23:03.933Z,29.27
2023-03-02T06:27:05.781Z,29.27
2023-03-02T06:31:10.799Z,28.27
2023-03-02T06:35:12.868Z,27.93
2023-03-02T06:39:17.770Z,26.33
2023-03-02T06:43:19.544Z,27.77
2023-03-02T06:47:22.555Z,26.03
2023-03-02T06:51:24.564Z,25.83
2023-03-02T06:55:26.478Z,28.77
2023-03-02T06:59:28.341Z,27.33
2023-03-02T07:03:30.162Z,26.90
2023-03-02T07:07:32.223Z,30.37
2023-03-02T07:11:34.392Z,31.80
2023-03-02T07:15:39.497Z,32.00
2023-03-02T07:19:41.506Z,30.10
2023-03-02T07:23:43.301Z,31.20
2023-03-02T07:27:46.380Z,28.93
2023-03-02T07:31:48.591Z,31.07
2023-03-02T07:35:50.675Z,28.00
2023-03-02T07:39:52.478Z,33.37
2023-03-02T07:43:54.272Z,32.40
2023-03-02T07:47:56.129Z,31.63
2023-03-02T07:51:57.900Z,32.03
2023-03-02T07:56:02.225Z,32.70
2023-03-02T08:00:04.961Z,30.10
2023-03-02T08:04:07.180Z,35.03
2023-03-02T08:08:09.057Z,32.57
2023-03-02T08:12:10.928Z,30.47
2023-03-02T08:16:14.763Z,29.73
2023-03-02T08:20:16.690Z,30.27
2023-03-02T08:24:18.497Z,29.07
2023-03-02T08:28:21.456Z,31.00
2023-03-02T08:32:23.325Z,30.23
2023-03-02T08:36:25.310Z,30.97
2023-03-02T08:40:27.208Z,34.63
2023-03-02T08:44:29.090Z,32.73
2023-03-02T08:48:30.834Z,33.33
2023-03-02T08:52:35.759Z,31.63
2023-03-02T08:56:39.280Z,34.33
2023-03-02T09:00:41.313Z,36.83
2023-03-02T09:04:43.257Z,30.60
2023-03-02T09:08:45.153Z,29.73
2023-03-02T09:12:46.999Z,31.37
2023-03-02T09:16:49.265Z,32.53
2023-03-02T09:20:52.278Z,30.10
2023-03-02T09:24:54.099Z,31.00
2023-03-02T09:28:56.503Z,32.10
2023-03-02T09:32:58.477Z,31.70
2023-03-02T09:37:00.335Z,36.53
2023-03-02T09:41:49.580Z,31.67
2023-03-02T09:46:27.680Z,32.10
2023-03-02T09:50:43.039Z,32.83
2023-03-02T09:54:44.978Z,32.00
2023-03-02T09:59:31.205Z,29.53
2023-03-02T10:03:44.736Z,32.83
2023-03-02T10:07:46.758Z,30.23
2023-03-02T10:12:03.568Z,30.00
2023-03-02T10:16:32.069Z,34.20
2023-03-02T10:20:52.842Z,27.93
2023-03-02T10:24:57.663Z,25.63
2023-03-02T10:29:28.884Z,27.30
2023-03-02T10:33:33.835Z,27.50
2023-03-02T10:37:35.865Z,28.23
2023-03-02T10:41:43.054Z,28.90
2023-03-02T10:45:46.137Z,29.43
2023-03-02T10:49:49.851Z,26.20
2023-03-02T10:54:10.624Z,29.10
2023-03-02T10:58:30.211Z,30.00
2023-03-02T11:02:35.113Z,22.50
2023-03-02T11:06:39.277Z,22.33
2023-03-02T11:10:51.045Z,26.07
2023-03-02T11:15:45.082Z,19.17
2023-03-02T11:19:47.049Z,19.20
2023-03-02T11:24:24.533Z,18.77
2023-03-02T11:28:48.541Z,18.43
2023-03-02T11:32:58.098Z,20.50
2023-03-02T11:37:24.534Z,18.90
2023-03-02T11:41:36.722Z,16.47
2023-03-02T11:45:48.855Z,17.03
2023-03-02T11:49:56.200Z,18.17
2023-03-02T11:54:04.792Z,16.43
2023-03-02T11:58:06.524Z,14.17
2023-03-02T12:02:09.691Z,16.07
2023-03-02T12:06:16.772Z,13.97
2023-03-02T12:10:37.076Z,14.40
2023-03-02T12:14:40.795Z,15.00
2023-03-02T12:18:48.944Z,14.53
2023-03-02T12:22:50.765Z,14.07
2023-03-02T12:27:07.378Z,13.20
2023-03-02T12:31:13.302Z,13.97
2023-03-02T12:35:18.972Z,13.53
2023-03-02T12:39:36.280Z,12.17
2023-03-02T12:43:50.323Z,14.27
2023-03-02T12:48:01.632Z,11.73
2023-03-02T12:52:23.832Z,12.97
2023-03-02T12:56:26.131Z,16.00
2023-03-02T13:00:31.124Z,12.33
2023-03-02T13:04:32.873Z,14.83
2023-03-02T13:08:34.625Z,15.93
2023-03-02T13:12:36.470Z,16.93
2023-03-02T13:16:38.478Z,17.43
2023-03-02T13:20:40.386Z,16.63
2023-03-02T13:24:49.782Z,14.87
2023-03-02T13:29:21.123Z,16.93
2023-03-02T13:33:24.229Z,18.87
2023-03-02T13:37:43.603Z,17.87
2023-03-02T13:42:27.386Z,16.10
2023-03-02T13:46:35.670Z,14.20
2023-03-02T13:50:37.994Z,16.47
2023-03-02T13:54:41.840Z,20.83
2023-03-02T13:58:43.639Z,20.17
2023-03-02T14:02:45.508Z,16.97
2023-03-02T14:06:47.435Z,20.63
2023-03-02T14:10:51.043Z,19.40
2023-03-02T14:14:53.441Z,21.43
2023-03-02T14:18:58.320Z,21.80
2023-03-02T14:23:03.560Z,19.47
2023-03-02T14:27:05.425Z,19.60
2023-03-02T14:31:08.884Z,19.20
2023-03-02T14:35:17.436Z,19.93
2023-03-02T14:39:38.079Z,18.60
2023-03-02T14:43:39.892Z,17.90
2023-03-02T14:47:41.772Z,19.87
2023-03-02T14:51:55.570Z,27.57
2023-03-02T14:55:59.734Z,18.90
2023-03-02T15:00:03.168Z,15.67
2023-03-02T15:04:05.202Z,18.73
2023-03-02T15:08:07.038Z,16.80
2023-03-02T15:12:14.746Z,14.80
2023-03-02T15:16:16.821Z,15.80
2023-03-02T15:20:19.031Z,15.57
2023-03-02T15:24:23.546Z,14.63
2023-03-02T15:28:25.605Z,14.20
2023-03-02T15:32:27.514Z,14.67
2023-03-02T15:36:29.327Z,14.77
2023-03-02T15:40:34.227Z,12.67
2023-03-02T15:44:36.049Z,12.97
2023-03-02T15:48:38.616Z,12.57
2023-03-02T15:52:41.560Z,15.43
2023-03-02T15:56:45.127Z,13.17
2023-03-02T16:00:46.981Z,17.57
2023-03-02T16:04:48.863Z,15.60
2023-03-02T16:08:50.867Z,13.17
2023-03-02T16:12:52.632Z,15.97
2023-03-02T16:16:54.453Z,15.87
2023-03-02T16:20:56.686Z,15.73
2023-03-02T16:24:58.812Z,18.90
2023-03-02T16:29:01.864Z,17.70
2023-03-02T16:33:13.754Z,18.67
2023-03-02T16:37:15.585Z,15.33
2023-03-02T16:41:23.881Z,16.73
2023-03-02T16:45:26.956Z,18.20
2023-03-02T16:49:29.002Z,17.60
2023-03-02T16:53:30.943Z,18.50
2023-03-02T16:57:33.669Z,18.27
2023-03-02T17:01:36.923Z,17.67
2023-03-02T17:05:42.622Z,17.63
2023-03-02T17:09:44.592Z,21.87
2023-03-02T17:13:46.452Z,17.23
2023-03-02T17:17:48.685Z,36.40
2023-03-02T17:21:50.461Z,25.43
2023-03-02T17:25:54.546Z,19.53
2023-03-02T17:29:56.375Z,29.73
2023-03-02T17:33:58.218Z,21.17
2023-03-02T17:38:00.122Z,27.60
2023-03-02T17:42:03.594Z,23.67
2023-03-02T17:46:20.626Z,31.97
2023-03-02T17:50:23.613Z,32.17
2023-03-02T17:54:25.577Z,30.57
2023-03-02T17:58:35.948Z,41.67
2023-03-02T18:02:44.743Z,37.53
2023-03-02T18:06:46.588Z,26.70
2023-03-02T18:10:49.196Z,28.80
2023-03-02T18:14:51.457Z,28.40
2023-03-02T18:18:54.137Z,22.03
2023-03-02T18:23:12.809Z,29.13
2023-03-02T18:27:20.064Z,26.50
2023-03-02T18:31:22.134Z,30.33
2023-03-02T18:35:27.576Z,29.90
2023-03-02T18:39:41.275Z,27.27
2023-03-02T18:43:43.730Z,27.63
2023-03-02T18:47:46.319Z,27.90
2023-03-02T18:52:02.562Z,27.60
2023-03-02T18:56:17.685Z,25.03
2023-03-02T19:00:26.068Z,29.67
2023-03-02T19:04:31.031Z,28.17
2023-03-02T19:08:40.301Z,26.07
2023-03-02T19:12:42.282Z,27.80
2023-03-02T19:16:44.312Z,29.57
2023-03-02T19:20:46.692Z,28.10
2023-03-02T19:24:53.917Z,26.53
2023-03-02T19:28:56.005Z,27.63
2023-03-02T19:33:06.640Z,22.40
2023-03-02T19:37:11.904Z,23.40
2023-03-02T19:41:16.904Z,24.40
2023-03-02T19:45:30.262Z,24.57
2023-03-02T19:49:32.465Z,27.70
2023-03-02T19:53:37.142Z,28.57
2023-03-02T19:57:43.399Z,24.90
2023-03-02T20:01:47.803Z,26.33
2023-03-02T20:05:54.655Z,25.27
2023-03-02T20:09:58.878Z,23.93
2023-03-02T20:14:08.046Z,25.97
2023-03-02T20:18:20.794Z,22.97
2023-03-02T20:22:25.968Z,24.40
2023-03-02T20:26:33.273Z,28.60
2023-03-02T20:30:41.236Z,25.73
2023-03-02T20:34:43.429Z,29.73
2023-03-02T20:38:50.107Z,30.53
2023-03-02T20:42:52.118Z,25.00
2023-03-02T20:46:59.366Z,30.30
2023-03-02T20:51:01.278Z,25.47
2023-03-02T20:59:40.555Z,24.57
2023-03-02T21:03:48.275Z,28.77
2023-03-02T21:07:50.220Z,26.03
2023-03-02T21:11:52.263Z,31.60
2023-03-02T21:15:54.211Z,30.27
2023-03-02T21:19:59.345Z,29.00
2023-03-02T21:24:01.357Z,29.33
2023-03-02T21:28:03.395Z,27.90
2023-03-02T21:32:07.793Z,29.03
2023-03-02T21:36:18.599Z,29.90
2023-03-02T21:40:25.562Z,32.30
2023-03-02T21:44:27.446Z,30.93
2023-03-02T21:48:29.361Z,32.23
2023-03-02T21:52:31.197Z,32.13
2023-03-02T21:56:33.159Z,31.33
2023-03-02T22:00:40.924Z,28.93
2023-03-02T22:04:43.079Z,28.70
2023-03-02T22:08:44.919Z,29.00
2023-03-02T22:12:46.701Z,26.77
2023-03-02T22:16:49.205Z,34.60
2023-03-02T22:20:51.442Z,32.83
2023-03-02T22:24:54.238Z,35.23
2023-03-02T22:29:08.000Z,38.37
2023-03-02T22:33:25.046Z,36.93
2023-03-02T22:37:33.082Z,34.13
2023-03-02T22:41:34.921Z,33.47
2023-03-02T22:45:36.842Z,39.53
2023-03-02T22:49:38.653Z,39.73
2023-03-02T22:53:53.524Z,37.87
2023-03-02T22:57:55.393Z,36.00
2023-03-02T23:02:01.875Z,39.97
2023-03-02T23:06:21.664Z,32.60
2023-03-02T23:10:23.647Z,32.43
2023-03-02T23:14:46.818Z,35.93
2023-03-02T23:18:49.047Z,39.13
2023-03-02T23:22:51.801Z,36.10
2023-03-02T23:26:53.665Z,33.43
2023-03-02T23:30:55.507Z,40.60
2023-03-02T23:34:57.310Z,35.83
2023-03-02T23:38:59.229Z,38.07
2023-03-02T23:43:01.011Z,35.80
2023-03-02T23:47:03.448Z,34.67
2023-03-02T23:51:05.916Z,34.20
2023-03-02T23:55:08.824Z,37.33
2023-03-02T23:59:10.746Z,36.80
